sensor_id;sensor_type;location;lat;lon;timestamp;P1;durP1;ratioP1;P2;durP2;ratioP2
36593;SDS011;22603;47.900;8.146;2023-12-22T00:00:54;2.03;;;0.63;;
36593;SDS011;22603;47.900;8.146;2023-12-22T00:03:41;1.07;;;0.63;;
36593;SDS011;22603;47.900;8.146;2023-12-22T00:06:28;1.17;;;0.60;;
36593;SDS011;22603;47.900;8.146;2023-12-22T00:09:14;0.53;;;0.53;;
36593;SDS011;22603;47.900;8.146;2023-12-22T00:12:01;2.77;;;1.07;;
36593;SDS011;22603;47.900;8.146;2023-12-22T00:14:52;1.50;;;0.70;;
36593;SDS011;22603;47.900;8.146;2023-12-22T00:17:39;2.20;;;1.10;;
36593;SDS011;22603;47.900;8.146;2023-12-22T00:20:29;4.37;;;1.03;;
36593;SDS011;22603;47.900;8.146;2023-12-22T00:23:15;3.40;;;0.83;;
36593;SDS011;22603;47.900;8.146;2023-12-22T00:26:02;2.60;;;0.90;;
36593;SDS011;22603;47.900;8.146;2023-12-22T00:28:49;1.27;;;0.60;;
36593;SDS011;22603;47.900;8.146;2023-12-22T00:31:40;2.03;;;0.90;;
36593;SDS011;22603;47.900;8.146;2023-12-22T00:34:27;6.10;;;1.60;;
36593;SDS011;22603;47.900;8.146;2023-12-22T00:37:13;1.77;;;0.70;;
36593;SDS011;22603;47.900;8.146;2023-12-22T00:40:00;3.17;;;1.03;;
36593;SDS011;22603;47.900;8.146;2023-12-22T00:42:48;2.50;;;1.00;;
36593;SDS011;22603;47.900;8.146;2023-12-22T00:45:35;0.97;;;0.80;;
36593;SDS011;22603;47.900;8.146;2023-12-22T00:48:23;3.43;;;0.80;;
36593;SDS011;22603;47.900;8.146;2023-12-22T00:51:10;2.53;;;0.97;;
36593;SDS011;22603;47.900;8.146;2023-12-22T00:53:57;2.23;;;0.80;;
36593;SDS011;22603;47.900;8.146;2023-12-22T00:56:43;3.20;;;0.90;;
36593;SDS011;22603;47.900;8.146;2023-12-22T00:59:30;4.70;;;1.07;;
36593;SDS011;22603;47.900;8.146;2023-12-22T01:02:17;0.50;;;0.50;;
36593;SDS011;22603;47.900;8.146;2023-12-22T01:05:07;1.27;;;0.57;;
36593;SDS011;22603;47.900;8.146;2023-12-22T01:07:54;2.00;;;1.00;;
36593;SDS011;22603;47.900;8.146;2023-12-22T01:10:40;1.53;;;0.73;;
36593;SDS011;22603;47.900;8.146;2023-12-22T01:13:27;4.20;;;0.93;;
36593;SDS011;22603;47.900;8.146;2023-12-22T01:16:14;2.80;;;1.13;;
36593;SDS011;22603;47.900;8.146;2023-12-22T01:19:03;4.60;;;1.00;;
36593;SDS011;22603;47.900;8.146;2023-12-22T01:21:51;2.47;;;0.60;;
36593;SDS011;22603;47.900;8.146;2023-12-22T01:24:38;1.70;;;0.60;;
36593;SDS011;22603;47.900;8.146;2023-12-22T01:27:27;0.93;;;0.70;;
36593;SDS011;22603;47.900;8.146;2023-12-22T01:30:14;2.77;;;0.83;;
36593;SDS011;22603;47.900;8.146;2023-12-22T01:33:02;1.10;;;0.53;;
36593;SDS011;22603;47.900;8.146;2023-12-22T01:35:49;2.87;;;0.70;;
36593;SDS011;22603;47.900;8.146;2023-12-22T01:38:38;3.30;;;1.07;;
36593;SDS011;22603;47.900;8.146;2023-12-22T01:41:25;5.40;;;0.80;;
36593;SDS011;22603;47.900;8.146;2023-12-22T01:44:12;1.93;;;0.73;;
36593;SDS011;22603;47.900;8.146;2023-12-22T01:46:58;3.57;;;0.73;;
36593;SDS011;22603;47.900;8.146;2023-12-22T01:49:45;1.50;;;0.60;;
36593;SDS011;22603;47.900;8.146;2023-12-22T01:52:33;3.30;;;0.57;;
36593;SDS011;22603;47.900;8.146;2023-12-22T01:55:22;2.40;;;0.57;;
36593;SDS011;22603;47.900;8.146;2023-12-22T01:58:09;4.57;;;1.17;;
36593;SDS011;22603;47.900;8.146;2023-12-22T02:00:57;2.47;;;0.80;;
36593;SDS011;22603;47.900;8.146;2023-12-22T02:03:43;1.57;;;0.80;;
36593;SDS011;22603;47.900;8.146;2023-12-22T02:06:30;1.50;;;0.73;;
36593;SDS011;22603;47.900;8.146;2023-12-22T02:09:17;6.67;;;1.53;;
36593;SDS011;22603;47.900;8.146;2023-12-22T02:12:05;5.40;;;0.90;;
36593;SDS011;22603;47.900;8.146;2023-12-22T02:14:52;5.03;;;0.90;;
36593;SDS011;22603;47.900;8.146;2023-12-22T02:17:42;0.73;;;0.57;;
36593;SDS011;22603;47.900;8.146;2023-12-22T02:20:34;2.67;;;1.00;;
36593;SDS011;22603;47.900;8.146;2023-12-22T02:23:23;1.73;;;0.90;;
36593;SDS011;22603;47.900;8.146;2023-12-22T02:26:11;1.70;;;0.60;;
36593;SDS011;22603;47.900;8.146;2023-12-22T02:29:03;0.63;;;0.63;;
36593;SDS011;22603;47.900;8.146;2023-12-22T02:31:51;1.87;;;0.90;;
36593;SDS011;22603;47.900;8.146;2023-12-22T02:34:41;1.70;;;0.90;;
36593;SDS011;22603;47.900;8.146;2023-12-22T02:37:29;12.17;;;1.20;;
36593;SDS011;22603;47.900;8.146;2023-12-22T02:40:19;4.40;;;1.13;;
36593;SDS011;22603;47.900;8.146;2023-12-22T02:43:08;9.60;;;1.60;;
36593;SDS011;22603;47.900;8.146;2023-12-22T02:45:55;8.07;;;1.03;;
36593;SDS011;22603;47.900;8.146;2023-12-22T02:48:41;1.27;;;0.90;;
36593;SDS011;22603;47.900;8.146;2023-12-22T02:51:28;24.03;;;1.60;;
36593;SDS011;22603;47.900;8.146;2023-12-22T02:54:15;2.53;;;0.70;;
36593;SDS011;22603;47.900;8.146;2023-12-22T02:57:03;1.23;;;0.60;;
36593;SDS011;22603;47.900;8.146;2023-12-22T02:59:50;4.17;;;1.00;;
36593;SDS011;22603;47.900;8.146;2023-12-22T03:02:37;4.33;;;0.77;;
36593;SDS011;22603;47.900;8.146;2023-12-22T03:05:23;2.00;;;0.50;;
36593;SDS011;22603;47.900;8.146;2023-12-22T03:08:10;5.93;;;0.83;;
36593;SDS011;22603;47.900;8.146;2023-12-22T03:10:56;3.80;;;1.17;;
36593;SDS011;22603;47.900;8.146;2023-12-22T03:13:45;2.10;;;1.00;;
36593;SDS011;22603;47.900;8.146;2023-12-22T03:16:31;2.37;;;1.27;;
36593;SDS011;22603;47.900;8.146;2023-12-22T03:19:18;9.70;;;1.20;;
36593;SDS011;22603;47.900;8.146;2023-12-22T03:22:05;5.53;;;1.07;;
36593;SDS011;22603;47.900;8.146;2023-12-22T03:24:51;2.20;;;1.30;;
36593;SDS011;22603;47.900;8.146;2023-12-22T03:27:38;5.03;;;1.30;;
36593;SDS011;22603;47.900;8.146;2023-12-22T03:30:26;4.63;;;1.20;;
36593;SDS011;22603;47.900;8.146;2023-12-22T03:33:13;7.47;;;1.00;;
36593;SDS011;22603;47.900;8.146;2023-12-22T03:35:59;6.60;;;1.10;;
36593;SDS011;22603;47.900;8.146;2023-12-22T03:38:46;2.70;;;1.33;;
36593;SDS011;22603;47.900;8.146;2023-12-22T03:41:33;3.13;;;1.17;;
36593;SDS011;22603;47.900;8.146;2023-12-22T03:44:19;5.57;;;1.70;;
36593;SDS011;22603;47.900;8.146;2023-12-22T03:47:11;6.37;;;1.20;;
36593;SDS011;22603;47.900;8.146;2023-12-22T03:50:00;2.83;;;1.43;;
36593;SDS011;22603;47.900;8.146;2023-12-22T03:52:46;6.80;;;1.67;;
36593;SDS011;22603;47.900;8.146;2023-12-22T03:55:33;4.67;;;2.10;;
36593;SDS011;22603;47.900;8.146;2023-12-22T03:58:20;5.90;;;1.20;;
36593;SDS011;22603;47.900;8.146;2023-12-22T04:01:07;3.23;;;0.97;;
36593;SDS011;22603;47.900;8.146;2023-12-22T04:03:55;6.90;;;1.80;;
36593;SDS011;22603;47.900;8.146;2023-12-22T04:06:42;1.87;;;0.80;;
36593;SDS011;22603;47.900;8.146;2023-12-22T04:09:28;2.07;;;0.83;;
36593;SDS011;22603;47.900;8.146;2023-12-22T04:12:15;3.47;;;1.00;;
36593;SDS011;22603;47.900;8.146;2023-12-22T04:15:01;2.20;;;0.80;;
36593;SDS011;22603;47.900;8.146;2023-12-22T04:17:48;2.73;;;0.83;;
36593;SDS011;22603;47.900;8.146;2023-12-22T04:20:37;8.03;;;1.17;;
36593;SDS011;22603;47.900;8.146;2023-12-22T04:23:24;5.73;;;0.93;;
36593;SDS011;22603;47.900;8.146;2023-12-22T04:26:10;1.87;;;0.70;;
36593;SDS011;22603;47.900;8.146;2023-12-22T04:28:57;11.67;;;1.23;;
36593;SDS011;22603;47.900;8.146;2023-12-22T04:31:44;0.70;;;0.67;;
36593;SDS011;22603;47.900;8.146;2023-12-22T04:34:31;5.90;;;0.80;;
36593;SDS011;22603;47.900;8.146;2023-12-22T04:37:19;2.00;;;0.80;;
36593;SDS011;22603;47.900;8.146;2023-12-22T04:40:06;2.80;;;0.77;;
36593;SDS011;22603;47.900;8.146;2023-12-22T04:42:53;3.10;;;0.90;;
36593;SDS011;22603;47.900;8.146;2023-12-22T04:45:40;4.50;;;1.00;;
36593;SDS011;22603;47.900;8.146;2023-12-22T04:48:26;1.30;;;0.60;;
36593;SDS011;22603;47.900;8.146;2023-12-22T04:51:13;2.63;;;0.90;;
36593;SDS011;22603;47.900;8.146;2023-12-22T04:54:02;1.50;;;0.80;;
36593;SDS011;22603;47.900;8.146;2023-12-22T04:56:49;3.87;;;1.10;;
36593;SDS011;22603;47.900;8.146;2023-12-22T04:59:36;1.87;;;0.90;;
36593;SDS011;22603;47.900;8.146;2023-12-22T05:02:22;5.00;;;0.93;;
36593;SDS011;22603;47.900;8.146;2023-12-22T05:05:09;2.10;;;0.67;;
36593;SDS011;22603;47.900;8.146;2023-12-22T05:07:56;3.87;;;0.70;;
36593;SDS011;22603;47.900;8.146;2023-12-22T05:10:44;4.47;;;1.00;;
36593;SDS011;22603;47.900;8.146;2023-12-22T05:13:30;6.97;;;1.37;;
36593;SDS011;22603;47.900;8.146;2023-12-22T05:16:18;5.47;;;1.30;;
36593;SDS011;22603;47.900;8.146;2023-12-22T05:19:05;3.50;;;0.93;;
36593;SDS011;22603;47.900;8.146;2023-12-22T05:21:51;3.13;;;0.70;;
36593;SDS011;22603;47.900;8.146;2023-12-22T05:24:41;7.27;;;1.20;;
36593;SDS011;22603;47.900;8.146;2023-12-22T05:27:29;4.47;;;1.10;;
36593;SDS011;22603;47.900;8.146;2023-12-22T05:30:16;5.53;;;1.17;;
36593;SDS011;22603;47.900;8.146;2023-12-22T05:33:03;2.30;;;0.70;;
36593;SDS011;22603;47.900;8.146;2023-12-22T05:35:50;8.47;;;1.40;;
36593;SDS011;22603;47.900;8.146;2023-12-22T05:38:37;1.77;;;0.80;;
36593;SDS011;22603;47.900;8.146;2023-12-22T05:41:23;3.50;;;0.87;;
36593;SDS011;22603;47.900;8.146;2023-12-22T05:44:11;1.30;;;0.60;;
36593;SDS011;22603;47.900;8.146;2023-12-22T05:46:58;2.17;;;0.80;;
36593;SDS011;22603;47.900;8.146;2023-12-22T05:49:45;2.73;;;0.90;;
36593;SDS011;22603;47.900;8.146;2023-12-22T05:52:32;1.47;;;0.80;;
36593;SDS011;22603;47.900;8.146;2023-12-22T05:55:19;7.40;;;1.13;;
36593;SDS011;22603;47.900;8.146;2023-12-22T05:58:06;4.30;;;0.87;;
36593;SDS011;22603;47.900;8.146;2023-12-22T06:00:54;1.27;;;0.87;;
36593;SDS011;22603;47.900;8.146;2023-12-22T06:03:41;2.67;;;0.63;;
36593;SDS011;22603;47.900;8.146;2023-12-22T06:06:27;2.30;;;0.90;;
36593;SDS011;22603;47.900;8.146;2023-12-22T06:09:15;1.20;;;0.77;;
36593;SDS011;22603;47.900;8.146;2023-12-22T06:12:03;7.17;;;1.63;;
36593;SDS011;22603;47.900;8.146;2023-12-22T06:14:51;2.30;;;0.90;;
36593;SDS011;22603;47.900;8.146;2023-12-22T06:17:39;0.40;;;0.40;;
36593;SDS011;22603;47.900;8.146;2023-12-22T06:20:25;4.33;;;0.93;;
36593;SDS011;22603;47.900;8.146;2023-12-22T06:23:12;1.03;;;0.63;;
36593;SDS011;22603;47.900;8.146;2023-12-22T06:25:59;4.63;;;0.90;;
36593;SDS011;22603;47.900;8.146;2023-12-22T06:28:47;0.70;;;0.40;;
36593;SDS011;22603;47.900;8.146;2023-12-22T06:31:34;2.03;;;0.90;;
36593;SDS011;22603;47.900;8.146;2023-12-22T06:34:22;5.07;;;0.93;;
36593;SDS011;22603;47.900;8.146;2023-12-22T06:37:09;4.33;;;0.97;;
36593;SDS011;22603;47.900;8.146;2023-12-22T06:39:56;1.73;;;0.97;;
36593;SDS011;22603;47.900;8.146;2023-12-22T06:42:43;8.03;;;1.33;;
36593;SDS011;22603;47.900;8.146;2023-12-22T06:45:29;4.17;;;1.20;;
36593;SDS011;22603;47.900;8.146;2023-12-22T06:48:16;2.63;;;0.80;;
36593;SDS011;22603;47.900;8.146;2023-12-22T06:51:05;9.70;;;1.93;;
36593;SDS011;22603;47.900;8.146;2023-12-22T06:53:52;7.77;;;1.30;;
36593;SDS011;22603;47.900;8.146;2023-12-22T06:56:40;5.97;;;1.13;;
36593;SDS011;22603;47.900;8.146;2023-12-22T06:59:26;4.00;;;0.93;;
36593;SDS011;22603;47.900;8.146;2023-12-22T07:02:15;6.27;;;0.83;;
36593;SDS011;22603;47.900;8.146;2023-12-22T07:08:20;2.57;;;1.00;;
36593;SDS011;22603;47.900;8.146;2023-12-22T07:11:07;1.23;;;0.50;;
36593;SDS011;22603;47.900;8.146;2023-12-22T07:13:54;1.57;;;0.53;;
36593;SDS011;22603;47.900;8.146;2023-12-22T07:16:42;4.97;;;1.13;;
36593;SDS011;22603;47.900;8.146;2023-12-22T07:19:29;7.97;;;1.90;;
36593;SDS011;22603;47.900;8.146;2023-12-22T07:22:16;2.23;;;0.60;;
36593;SDS011;22603;47.900;8.146;2023-12-22T07:25:06;2.20;;;0.87;;
36593;SDS011;22603;47.900;8.146;2023-12-22T07:27:53;2.57;;;1.33;;
36593;SDS011;22603;47.900;8.146;2023-12-22T07:30:40;0.70;;;0.57;;
36593;SDS011;22603;47.900;8.146;2023-12-22T07:33:27;5.67;;;0.80;;
36593;SDS011;22603;47.900;8.146;2023-12-22T07:36:14;1.37;;;0.67;;
36593;SDS011;22603;47.900;8.146;2023-12-22T07:39:00;2.83;;;0.87;;
36593;SDS011;22603;47.900;8.146;2023-12-22T07:41:49;1.10;;;0.63;;
36593;SDS011;22603;47.900;8.146;2023-12-22T07:44:36;1.27;;;0.50;;
36593;SDS011;22603;47.900;8.146;2023-12-22T07:47:22;4.80;;;1.27;;
36593;SDS011;22603;47.900;8.146;2023-12-22T07:50:09;4.77;;;1.17;;
36593;SDS011;22603;47.900;8.146;2023-12-22T07:52:56;1.33;;;0.70;;
36593;SDS011;22603;47.900;8.146;2023-12-22T07:55:48;2.97;;;0.73;;
36593;SDS011;22603;47.900;8.146;2023-12-22T07:58:36;4.77;;;0.83;;
36593;SDS011;22603;47.900;8.146;2023-12-22T08:01:24;6.17;;;0.70;;
36593;SDS011;22603;47.900;8.146;2023-12-22T08:04:10;1.43;;;0.57;;
36593;SDS011;22603;47.900;8.146;2023-12-22T08:06:58;0.70;;;0.60;;
36593;SDS011;22603;47.900;8.146;2023-12-22T08:09:44;2.53;;;0.87;;
36593;SDS011;22603;47.900;8.146;2023-12-22T08:12:31;3.47;;;1.03;;
36593;SDS011;22603;47.900;8.146;2023-12-22T08:15:19;1.90;;;0.60;;
36593;SDS011;22603;47.900;8.146;2023-12-22T08:18:20;3.33;;;0.53;;
36593;SDS011;22603;47.900;8.146;2023-12-22T08:21:07;9.37;;;1.17;;
36593;SDS011;22603;47.900;8.146;2023-12-22T08:24:06;7.23;;;1.03;;
36593;SDS011;22603;47.900;8.146;2023-12-22T08:26:56;4.20;;;0.60;;
36593;SDS011;22603;47.900;8.146;2023-12-22T08:29:43;3.57;;;0.97;;
36593;SDS011;22603;47.900;8.146;2023-12-22T08:32:31;4.03;;;0.80;;
36593;SDS011;22603;47.900;8.146;2023-12-22T08:35:18;8.03;;;1.30;;
36593;SDS011;22603;47.900;8.146;2023-12-22T08:38:04;5.47;;;1.40;;
36593;SDS011;22603;47.900;8.146;2023-12-22T08:40:53;0.70;;;0.57;;
36593;SDS011;22603;47.900;8.146;2023-12-22T08:43:44;2.77;;;0.90;;
36593;SDS011;22603;47.900;8.146;2023-12-22T08:46:31;4.93;;;1.40;;
36593;SDS011;22603;47.900;8.146;2023-12-22T08:49:19;4.30;;;1.23;;
36593;SDS011;22603;47.900;8.146;2023-12-22T08:52:07;2.90;;;0.93;;
36593;SDS011;22603;47.900;8.146;2023-12-22T08:54:54;1.73;;;0.67;;
36593;SDS011;22603;47.900;8.146;2023-12-22T08:57:41;5.50;;;1.03;;
36593;SDS011;22603;47.900;8.146;2023-12-22T09:00:40;1.37;;;0.80;;
36593;SDS011;22603;47.900;8.146;2023-12-22T09:03:27;3.47;;;0.90;;
36593;SDS011;22603;47.900;8.146;2023-12-22T09:06:17;3.70;;;0.70;;
36593;SDS011;22603;47.900;8.146;2023-12-22T09:09:04;0.33;;;0.33;;
36593;SDS011;22603;47.900;8.146;2023-12-22T09:11:52;4.43;;;0.77;;
36593;SDS011;22603;47.900;8.146;2023-12-22T09:14:39;4.60;;;0.70;;
36593;SDS011;22603;47.900;8.146;2023-12-22T09:17:26;1.63;;;0.77;;
36593;SDS011;22603;47.900;8.146;2023-12-22T09:20:13;1.33;;;0.60;;
36593;SDS011;22603;47.900;8.146;2023-12-22T09:23:01;1.93;;;0.73;;
36593;SDS011;22603;47.900;8.146;2023-12-22T09:25:51;1.30;;;0.63;;
36593;SDS011;22603;47.900;8.146;2023-12-22T09:28:38;0.70;;;0.50;;
36593;SDS011;22603;47.900;8.146;2023-12-22T09:31:25;3.13;;;0.77;;
36593;SDS011;22603;47.900;8.146;2023-12-22T09:34:12;1.17;;;0.67;;
36593;SDS011;22603;47.900;8.146;2023-12-22T09:36:59;4.40;;;0.87;;
36593;SDS011;22603;47.900;8.146;2023-12-22T09:39:47;2.90;;;0.70;;
36593;SDS011;22603;47.900;8.146;2023-12-22T09:42:34;4.77;;;0.87;;
36593;SDS011;22603;47.900;8.146;2023-12-22T09:45:21;5.33;;;1.10;;
36593;SDS011;22603;47.900;8.146;2023-12-22T09:48:08;4.53;;;1.20;;
36593;SDS011;22603;47.900;8.146;2023-12-22T09:50:58;2.13;;;1.13;;
36593;SDS011;22603;47.900;8.146;2023-12-22T09:53:47;3.07;;;0.80;;
36593;SDS011;22603;47.900;8.146;2023-12-22T09:56:37;10.33;;;1.53;;
36593;SDS011;22603;47.900;8.146;2023-12-22T09:59:27;9.63;;;1.67;;
36593;SDS011;22603;47.900;8.146;2023-12-22T10:02:16;6.23;;;1.10;;
36593;SDS011;22603;47.900;8.146;2023-12-22T10:05:03;7.03;;;1.30;;
36593;SDS011;22603;47.900;8.146;2023-12-22T10:07:50;7.40;;;1.63;;
36593;SDS011;22603;47.900;8.146;2023-12-22T10:10:39;3.73;;;0.73;;
36593;SDS011;22603;47.900;8.146;2023-12-22T10:13:28;3.07;;;1.10;;
36593;SDS011;22603;47.900;8.146;2023-12-22T10:16:14;4.53;;;1.27;;
36593;SDS011;22603;47.900;8.146;2023-12-22T10:19:01;2.00;;;1.07;;
36593;SDS011;22603;47.900;8.146;2023-12-22T10:21:49;4.27;;;1.10;;
36593;SDS011;22603;47.900;8.146;2023-12-22T10:24:37;5.30;;;1.27;;
36593;SDS011;22603;47.900;8.146;2023-12-22T10:27:24;2.47;;;1.00;;
36593;SDS011;22603;47.900;8.146;2023-12-22T10:30:15;3.17;;;0.80;;
36593;SDS011;22603;47.900;8.146;2023-12-22T10:33:03;2.23;;;0.77;;
36593;SDS011;22603;47.900;8.146;2023-12-22T10:35:50;1.37;;;0.70;;
36593;SDS011;22603;47.900;8.146;2023-12-22T10:38:39;3.70;;;0.93;;
36593;SDS011;22603;47.900;8.146;2023-12-22T10:41:28;1.63;;;0.63;;
36593;SDS011;22603;47.900;8.146;2023-12-22T10:44:15;3.50;;;0.83;;
36593;SDS011;22603;47.900;8.146;2023-12-22T10:47:04;3.13;;;0.87;;
36593;SDS011;22603;47.900;8.146;2023-12-22T10:49:52;5.00;;;0.90;;
36593;SDS011;22603;47.900;8.146;2023-12-22T10:52:39;2.30;;;0.67;;
36593;SDS011;22603;47.900;8.146;2023-12-22T10:55:26;1.37;;;0.67;;
36593;SDS011;22603;47.900;8.146;2023-12-22T10:58:13;1.43;;;0.60;;
36593;SDS011;22603;47.900;8.146;2023-12-22T11:00:59;0.43;;;0.40;;
36593;SDS011;22603;47.900;8.146;2023-12-22T11:03:50;1.10;;;0.40;;
36593;SDS011;22603;47.900;8.146;2023-12-22T11:06:38;0.40;;;0.40;;
36593;SDS011;22603;47.900;8.146;2023-12-22T11:09:30;1.43;;;0.30;;
36593;SDS011;22603;47.900;8.146;2023-12-22T11:12:18;0.30;;;0.30;;
36593;SDS011;22603;47.900;8.146;2023-12-22T11:15:06;0.30;;;0.30;;
36593;SDS011;22603;47.900;8.146;2023-12-22T11:17:53;0.20;;;0.20;;
36593;SDS011;22603;47.900;8.146;2023-12-22T11:20:46;0.73;;;0.37;;
36593;SDS011;22603;47.900;8.146;2023-12-22T11:23:35;0.30;;;0.30;;
36593;SDS011;22603;47.900;8.146;2023-12-22T11:26:24;0.30;;;0.30;;
36593;SDS011;22603;47.900;8.146;2023-12-22T11:29:15;0.20;;;0.20;;
36593;SDS011;22603;47.900;8.146;2023-12-22T11:32:05;0.30;;;0.30;;
36593;SDS011;22603;47.900;8.146;2023-12-22T11:34:53;0.23;;;0.23;;
36593;SDS011;22603;47.900;8.146;2023-12-22T11:37:48;0.20;;;0.20;;
36593;SDS011;22603;47.900;8.146;2023-12-22T11:40:37;0.27;;;0.27;;
36593;SDS011;22603;47.900;8.146;2023-12-22T11:43:27;0.30;;;0.30;;
36593;SDS011;22603;47.900;8.146;2023-12-22T11:46:15;0.30;;;0.30;;
36593;SDS011;22603;47.900;8.146;2023-12-22T11:49:09;0.20;;;0.20;;
36593;SDS011;22603;47.900;8.146;2023-12-22T11:52:08;0.30;;;0.30;;
36593;SDS011;22603;47.900;8.146;2023-12-22T11:54:57;0.40;;;0.33;;
36593;SDS011;22603;47.900;8.146;2023-12-22T11:57:46;0.23;;;0.23;;
36593;SDS011;22603;47.900;8.146;2023-12-22T12:00:38;0.20;;;0.20;;
36593;SDS011;22603;47.900;8.146;2023-12-22T12:03:29;0.47;;;0.30;;
36593;SDS011;22603;47.900;8.146;2023-12-22T12:06:22;0.67;;;0.30;;
36593;SDS011;22603;47.900;8.146;2023-12-22T12:09:17;0.30;;;0.30;;
36593;SDS011;22603;47.900;8.146;2023-12-22T12:12:38;0.20;;;0.20;;
36593;SDS011;22603;47.900;8.146;2023-12-22T12:15:25;0.20;;;0.20;;
36593;SDS011;22603;47.900;8.146;2023-12-22T12:18:12;2.63;;;0.30;;
36593;SDS011;22603;47.900;8.146;2023-12-22T12:21:05;0.20;;;0.20;;
36593;SDS011;22603;47.900;8.146;2023-12-22T12:23:53;0.20;;;0.20;;
36593;SDS011;22603;47.900;8.146;2023-12-22T12:26:40;1.40;;;0.20;;
36593;SDS011;22603;47.900;8.146;2023-12-22T12:29:29;0.47;;;0.33;;
36593;SDS011;22603;47.900;8.146;2023-12-22T12:32:18;0.20;;;0.20;;
36593;SDS011;22603;47.900;8.146;2023-12-22T12:35:09;0.47;;;0.30;;
36593;SDS011;22603;47.900;8.146;2023-12-22T12:37:57;0.23;;;0.23;;
36593;SDS011;22603;47.900;8.146;2023-12-22T12:40:45;0.20;;;0.20;;
36593;SDS011;22603;47.900;8.146;2023-12-22T12:43:40;0.30;;;0.30;;
36593;SDS011;22603;47.900;8.146;2023-12-22T12:46:34;0.20;;;0.20;;
36593;SDS011;22603;47.900;8.146;2023-12-22T12:49:21;0.40;;;0.20;;
36593;SDS011;22603;47.900;8.146;2023-12-22T12:52:13;3.17;;;0.30;;
36593;SDS011;22603;47.900;8.146;2023-12-22T12:55:00;0.20;;;0.20;;
36593;SDS011;22603;47.900;8.146;2023-12-22T12:57:48;0.20;;;0.20;;
36593;SDS011;22603;47.900;8.146;2023-12-22T13:00:36;1.83;;;0.30;;
36593;SDS011;22603;47.900;8.146;2023-12-22T13:03:24;0.20;;;0.20;;
36593;SDS011;22603;47.900;8.146;2023-12-22T13:06:11;0.30;;;0.30;;
36593;SDS011;22603;47.900;8.146;2023-12-22T13:08:58;1.40;;;0.20;;
36593;SDS011;22603;47.900;8.146;2023-12-22T13:11:45;0.30;;;0.30;;
36593;SDS011;22603;47.900;8.146;2023-12-22T13:14:32;0.20;;;0.20;;
36593;SDS011;22603;47.900;8.146;2023-12-22T13:17:20;0.30;;;0.30;;
36593;SDS011;22603;47.900;8.146;2023-12-22T13:20:09;0.30;;;0.30;;
36593;SDS011;22603;47.900;8.146;2023-12-22T13:22:57;0.20;;;0.20;;
36593;SDS011;22603;47.900;8.146;2023-12-22T13:25:44;0.20;;;0.20;;
36593;SDS011;22603;47.900;8.146;2023-12-22T13:28:31;0.30;;;0.30;;
36593;SDS011;22603;47.900;8.146;2023-12-22T13:31:18;0.20;;;0.20;;
36593;SDS011;22603;47.900;8.146;2023-12-22T13:34:08;0.20;;;0.20;;
36593;SDS011;22603;47.900;8.146;2023-12-22T13:36:57;0.30;;;0.30;;
36593;SDS011;22603;47.900;8.146;2023-12-22T13:39:44;0.20;;;0.20;;
36593;SDS011;22603;47.900;8.146;2023-12-22T13:42:31;0.20;;;0.20;;
36593;SDS011;22603;47.900;8.146;2023-12-22T13:45:18;0.20;;;0.20;;
36593;SDS011;22603;47.900;8.146;2023-12-22T13:48:05;0.20;;;0.20;;
36593;SDS011;22603;47.900;8.146;2023-12-22T13:50:57;0.33;;;0.33;;
36593;SDS011;22603;47.900;8.146;2023-12-22T13:53:50;0.20;;;0.20;;
36593;SDS011;22603;47.900;8.146;2023-12-22T13:56:37;0.23;;;0.23;;
36593;SDS011;22603;47.900;8.146;2023-12-22T13:59:33;0.20;;;0.20;;
36593;SDS011;22603;47.900;8.146;2023-12-22T14:02:20;0.30;;;0.30;;
36593;SDS011;22603;47.900;8.146;2023-12-22T14:05:08;0.20;;;0.20;;
36593;SDS011;22603;47.900;8.146;2023-12-22T14:07:55;0.23;;;0.23;;
36593;SDS011;22603;47.900;8.146;2023-12-22T14:10:48;2.00;;;0.30;;
36593;SDS011;22603;47.900;8.146;2023-12-22T14:13:35;0.20;;;0.20;;
36593;SDS011;22603;47.900;8.146;2023-12-22T14:16:25;0.20;;;0.20;;
36593;SDS011;22603;47.900;8.146;2023-12-22T14:19:13;0.30;;;0.30;;
36593;SDS011;22603;47.900;8.146;2023-12-22T14:22:00;0.33;;;0.33;;
36593;SDS011;22603;47.900;8.146;2023-12-22T14:24:47;0.27;;;0.27;;
36593;SDS011;22603;47.900;8.146;2023-12-22T14:27:35;0.20;;;0.20;;
36593;SDS011;22603;47.900;8.146;2023-12-22T14:30:22;0.20;;;0.20;;
36593;SDS011;22603;47.900;8.146;2023-12-22T14:33:09;0.20;;;0.20;;
36593;SDS011;22603;47.900;8.146;2023-12-22T14:36:05;0.20;;;0.20;;
36593;SDS011;22603;47.900;8.146;2023-12-22T14:38:52;0.30;;;0.30;;
36593;SDS011;22603;47.900;8.146;2023-12-22T14:41:39;0.23;;;0.20;;
36593;SDS011;22603;47.900;8.146;2023-12-22T14:44:29;0.20;;;0.20;;
36593;SDS011;22603;47.900;8.146;2023-12-22T14:47:16;0.20;;;0.20;;
36593;SDS011;22603;47.900;8.146;2023-12-22T14:50:04;0.20;;;0.20;;
36593;SDS011;22603;47.900;8.146;2023-12-22T14:52:51;0.57;;;0.40;;
36593;SDS011;22603;47.900;8.146;2023-12-22T14:55:39;0.60;;;0.30;;
36593;SDS011;22603;47.900;8.146;2023-12-22T14:58:26;0.20;;;0.20;;
36593;SDS011;22603;47.900;8.146;2023-12-22T15:01:16;0.30;;;0.30;;
36593;SDS011;22603;47.900;8.146;2023-12-22T15:04:04;0.27;;;0.27;;
36593;SDS011;22603;47.900;8.146;2023-12-22T15:06:51;0.30;;;0.30;;
36593;SDS011;22603;47.900;8.146;2023-12-22T15:09:46;0.30;;;0.30;;
36593;SDS011;22603;47.900;8.146;2023-12-22T15:12:33;0.50;;;0.30;;
36593;SDS011;22603;47.900;8.146;2023-12-22T15:15:23;0.20;;;0.20;;
36593;SDS011;22603;47.900;8.146;2023-12-22T15:18:11;0.40;;;0.40;;
36593;SDS011;22603;47.900;8.146;2023-12-22T15:20:57;0.30;;;0.30;;
36593;SDS011;22603;47.900;8.146;2023-12-22T15:23:44;0.30;;;0.30;;
36593;SDS011;22603;47.900;8.146;2023-12-22T15:26:31;0.37;;;0.33;;
36593;SDS011;22603;47.900;8.146;2023-12-22T15:29:20;0.40;;;0.40;;
36593;SDS011;22603;47.900;8.146;2023-12-22T15:32:07;0.30;;;0.30;;
36593;SDS011;22603;47.900;8.146;2023-12-22T15:34:55;0.20;;;0.20;;
36593;SDS011;22603;47.900;8.146;2023-12-22T15:37:42;0.20;;;0.20;;
36593;SDS011;22603;47.900;8.146;2023-12-22T15:40:29;0.23;;;0.23;;
36593;SDS011;22603;47.900;8.146;2023-12-22T15:43:16;0.30;;;0.30;;
36593;SDS011;22603;47.900;8.146;2023-12-22T15:46:03;0.30;;;0.30;;
36593;SDS011;22603;47.900;8.146;2023-12-22T15:48:51;0.30;;;0.30;;
36593;SDS011;22603;47.900;8.146;2023-12-22T15:51:39;0.20;;;0.20;;
36593;SDS011;22603;47.900;8.146;2023-12-22T15:54:31;0.20;;;0.20;;
36593;SDS011;22603;47.900;8.146;2023-12-22T15:57:19;0.27;;;0.20;;
36593;SDS011;22603;47.900;8.146;2023-12-22T16:00:07;0.20;;;0.20;;
36593;SDS011;22603;47.900;8.146;2023-12-22T16:02:54;0.27;;;0.27;;
36593;SDS011;22603;47.900;8.146;2023-12-22T16:05:41;0.30;;;0.30;;
36593;SDS011;22603;47.900;8.146;2023-12-22T16:08:29;0.27;;;0.27;;
36593;SDS011;22603;47.900;8.146;2023-12-22T16:11:18;0.33;;;0.30;;
36593;SDS011;22603;47.900;8.146;2023-12-22T16:14:06;0.30;;;0.30;;
36593;SDS011;22603;47.900;8.146;2023-12-22T16:16:54;1.27;;;0.50;;
36593;SDS011;22603;47.900;8.146;2023-12-22T16:19:41;0.50;;;0.50;;
36593;SDS011;22603;47.900;8.146;2023-12-22T16:22:28;0.90;;;0.33;;
36593;SDS011;22603;47.900;8.146;2023-12-22T16:25:18;0.20;;;0.20;;
36593;SDS011;22603;47.900;8.146;2023-12-22T16:28:05;0.30;;;0.30;;
36593;SDS011;22603;47.900;8.146;2023-12-22T16:30:52;0.30;;;0.30;;
36593;SDS011;22603;47.900;8.146;2023-12-22T16:33:39;0.37;;;0.37;;
36593;SDS011;22603;47.900;8.146;2023-12-22T16:36:25;0.40;;;0.40;;
36593;SDS011;22603;47.900;8.146;2023-12-22T16:39:12;0.50;;;0.30;;
36593;SDS011;22603;47.900;8.146;2023-12-22T16:42:01;0.57;;;0.33;;
36593;SDS011;22603;47.900;8.146;2023-12-22T16:44:49;0.30;;;0.30;;
36593;SDS011;22603;47.900;8.146;2023-12-22T16:47:36;0.50;;;0.30;;
36593;SDS011;22603;47.900;8.146;2023-12-22T16:50:23;1.20;;;0.50;;
36593;SDS011;22603;47.900;8.146;2023-12-22T16:53:10;0.40;;;0.40;;
36593;SDS011;22603;47.900;8.146;2023-12-22T16:55:57;0.53;;;0.40;;